sensor_id;sensor_type;location;lat;lon;timestamp;P1;durP1;ratioP1;P2;durP2;ratioP2
19038;SDS011;9652;49.014;12.052;2023-03-29T00:02:23;4.03;;;3.73;;
19038;SDS011;9652;49.014;12.052;2023-03-29T00:04:54;4.63;;;4.00;;
19038;SDS011;9652;49.014;12.052;2023-03-29T00:07:22;3.97;;;3.57;;
19038;SDS011;9652;49.014;12.052;2023-03-29T00:09:50;4.07;;;3.77;;
19038;SDS011;9652;49.014;12.052;2023-03-29T00:12:17;4.13;;;3.73;;
19038;SDS011;9652;49.014;12.052;2023-03-29T00:14:44;6.27;;;3.77;;
19038;SDS011;9652;49.014;12.052;2023-03-29T00:17:13;4.80;;;4.30;;
19038;SDS011;9652;49.014;12.052;2023-03-29T00:19:41;5.00;;;4.50;;
19038;SDS011;9652;49.014;12.052;2023-03-29T00:22:09;5.53;;;4.57;;
19038;SDS011;9652;49.014;12.052;2023-03-29T00:24:37;5.67;;;4.20;;
19038;SDS011;9652;49.014;12.052;2023-03-29T00:27:04;4.83;;;3.90;;
19038;SDS011;9652;49.014;12.052;2023-03-29T00:29:31;4.87;;;4.47;;
19038;SDS011;9652;49.014;12.052;2023-03-29T00:31:58;4.70;;;4.30;;
19038;SDS011;9652;49.014;12.052;2023-03-29T00:34:27;4.50;;;3.93;;
19038;SDS011;9652;49.014;12.052;2023-03-29T00:36:56;7.07;;;4.57;;
19038;SDS011;9652;49.014;12.052;2023-03-29T00:39:24;4.90;;;4.50;;
19038;SDS011;9652;49.014;12.052;2023-03-29T00:41:54;4.17;;;3.70;;
19038;SDS011;9652;49.014;12.052;2023-03-29T00:47:27;4.77;;;4.23;;
19038;SDS011;9652;49.014;12.052;2023-03-29T00:50:02;5.83;;;4.63;;
19038;SDS011;9652;49.014;12.052;2023-03-29T00:52:38;3.87;;;3.57;;
19038;SDS011;9652;49.014;12.052;2023-03-29T00:55:11;4.50;;;4.10;;
19038;SDS011;9652;49.014;12.052;2023-03-29T00:57:43;4.20;;;3.80;;
19038;SDS011;9652;49.014;12.052;2023-03-29T01:00:14;4.87;;;4.37;;
19038;SDS011;9652;49.014;12.052;2023-03-29T01:02:48;4.03;;;3.73;;
19038;SDS011;9652;49.014;12.052;2023-03-29T01:05:22;4.53;;;4.13;;
19038;SDS011;9652;49.014;12.052;2023-03-29T01:07:58;4.37;;;3.97;;
19038;SDS011;9652;49.014;12.052;2023-03-29T01:10:31;4.60;;;4.20;;
19038;SDS011;9652;49.014;12.052;2023-03-29T01:13:07;4.80;;;3.93;;
19038;SDS011;9652;49.014;12.052;2023-03-29T01:15:37;4.57;;;4.27;;
19038;SDS011;9652;49.014;12.052;2023-03-29T01:18:10;4.30;;;4.00;;
19038;SDS011;9652;49.014;12.052;2023-03-29T01:20:41;4.80;;;4.40;;
19038;SDS011;9652;49.014;12.052;2023-03-29T01:23:34;4.27;;;3.93;;
19038;SDS011;9652;49.014;12.052;2023-03-29T01:26:33;4.73;;;4.07;;
19038;SDS011;9652;49.014;12.052;2023-03-29T01:29:14;5.13;;;4.47;;
19038;SDS011;9652;49.014;12.052;2023-03-29T01:31:49;4.77;;;4.23;;
19038;SDS011;9652;49.014;12.052;2023-03-29T01:34:23;5.43;;;4.20;;
19038;SDS011;9652;49.014;12.052;2023-03-29T01:36:59;4.70;;;4.23;;
19038;SDS011;9652;49.014;12.052;2023-03-29T01:39:34;5.20;;;4.27;;
19038;SDS011;9652;49.014;12.052;2023-03-29T01:42:06;5.27;;;4.77;;
19038;SDS011;9652;49.014;12.052;2023-03-29T01:44:48;5.33;;;4.83;;
19038;SDS011;9652;49.014;12.052;2023-03-29T01:47:25;4.10;;;3.57;;
19038;SDS011;9652;49.014;12.052;2023-03-29T01:50:03;4.33;;;4.03;;
19038;SDS011;9652;49.014;12.052;2023-03-29T01:52:38;4.70;;;4.30;;
19038;SDS011;9652;49.014;12.052;2023-03-29T01:55:15;5.07;;;4.67;;
19038;SDS011;9652;49.014;12.052;2023-03-29T01:57:48;5.00;;;4.60;;
19038;SDS011;9652;49.014;12.052;2023-03-29T02:00:22;4.40;;;4.00;;
19038;SDS011;9652;49.014;12.052;2023-03-29T02:02:54;4.63;;;4.10;;
19038;SDS011;9652;49.014;12.052;2023-03-29T02:05:25;4.17;;;3.97;;
19038;SDS011;9652;49.014;12.052;2023-03-29T02:07:56;4.40;;;4.07;;
19038;SDS011;9652;49.014;12.052;2023-03-29T02:10:26;4.60;;;4.20;;
19038;SDS011;9652;49.014;12.052;2023-03-29T02:12:55;5.53;;;5.10;;
19038;SDS011;9652;49.014;12.052;2023-03-29T02:15:24;4.50;;;4.10;;
19038;SDS011;9652;49.014;12.052;2023-03-29T02:17:52;5.00;;;4.13;;
19038;SDS011;9652;49.014;12.052;2023-03-29T02:20:21;5.20;;;4.60;;
19038;SDS011;9652;49.014;12.052;2023-03-29T02:22:57;4.73;;;4.07;;
19038;SDS011;9652;49.014;12.052;2023-03-29T02:25:32;6.80;;;3.97;;
19038;SDS011;9652;49.014;12.052;2023-03-29T02:28:01;7.20;;;4.03;;
19038;SDS011;9652;49.014;12.052;2023-03-29T02:30:34;4.10;;;3.80;;
19038;SDS011;9652;49.014;12.052;2023-03-29T02:33:12;4.33;;;3.93;;
19038;SDS011;9652;49.014;12.052;2023-03-29T02:35:47;4.67;;;4.27;;
19038;SDS011;9652;49.014;12.052;2023-03-29T02:38:21;4.87;;;4.47;;
19038;SDS011;9652;49.014;12.052;2023-03-29T02:40:52;4.23;;;3.70;;
19038;SDS011;9652;49.014;12.052;2023-03-29T02:43:22;3.90;;;3.40;;
19038;SDS011;9652;49.014;12.052;2023-03-29T02:45:53;4.57;;;4.17;;
19038;SDS011;9652;49.014;12.052;2023-03-29T02:48:22;3.83;;;3.53;;
19038;SDS011;9652;49.014;12.052;2023-03-29T02:50:54;4.60;;;4.20;;
19038;SDS011;9652;49.014;12.052;2023-03-29T02:53:27;4.33;;;4.00;;
19038;SDS011;9652;49.014;12.052;2023-03-29T02:55:59;4.33;;;3.93;;
19038;SDS011;9652;49.014;12.052;2023-03-29T02:58:27;3.83;;;3.53;;
19038;SDS011;9652;49.014;12.052;2023-03-29T03:00:57;5.60;;;4.10;;
19038;SDS011;9652;49.014;12.052;2023-03-29T03:03:26;3.80;;;3.50;;
19038;SDS011;9652;49.014;12.052;2023-03-29T03:05:54;4.33;;;3.93;;
19038;SDS011;9652;49.014;12.052;2023-03-29T03:08:22;4.23;;;3.80;;
19038;SDS011;9652;49.014;12.052;2023-03-29T03:10:49;4.33;;;3.93;;
19038;SDS011;9652;49.014;12.052;2023-03-29T03:13:17;5.13;;;4.30;;
19038;SDS011;9652;49.014;12.052;2023-03-29T03:15:45;4.57;;;4.17;;
19038;SDS011;9652;49.014;12.052;2023-03-29T03:18:14;4.33;;;4.00;;
19038;SDS011;9652;49.014;12.052;2023-03-29T03:20:41;3.93;;;3.63;;
19038;SDS011;9652;49.014;12.052;2023-03-29T03:23:11;4.50;;;4.10;;
19038;SDS011;9652;49.014;12.052;2023-03-29T03:25:38;6.20;;;4.47;;
19038;SDS011;9652;49.014;12.052;2023-03-29T03:28:05;4.90;;;4.50;;
19038;SDS011;9652;49.014;12.052;2023-03-29T03:30:32;5.50;;;4.47;;
19038;SDS011;9652;49.014;12.052;2023-03-29T03:33:27;5.17;;;4.67;;
19038;SDS011;9652;49.014;12.052;2023-03-29T03:36:27;4.93;;;4.27;;
19038;SDS011;9652;49.014;12.052;2023-03-29T03:38:56;4.87;;;4.47;;
19038;SDS011;9652;49.014;12.052;2023-03-29T03:41:23;4.43;;;4.13;;
19038;SDS011;9652;49.014;12.052;2023-03-29T03:43:51;3.97;;;3.67;;
19038;SDS011;9652;49.014;12.052;2023-03-29T03:46:18;4.73;;;4.33;;
19038;SDS011;9652;49.014;12.052;2023-03-29T03:48:48;4.83;;;4.43;;
19038;SDS011;9652;49.014;12.052;2023-03-29T03:51:20;3.93;;;3.67;;
19038;SDS011;9652;49.014;12.052;2023-03-29T03:53:49;4.47;;;4.17;;
19038;SDS011;9652;49.014;12.052;2023-03-29T03:56:34;5.10;;;4.67;;
19038;SDS011;9652;49.014;12.052;2023-03-29T03:59:30;4.70;;;4.30;;
19038;SDS011;9652;49.014;12.052;2023-03-29T04:02:02;5.03;;;4.63;;
19038;SDS011;9652;49.014;12.052;2023-03-29T04:04:32;5.10;;;4.30;;
19038;SDS011;9652;49.014;12.052;2023-03-29T04:07:16;4.30;;;4.00;;
19038;SDS011;9652;49.014;12.052;2023-03-29T04:10:06;4.60;;;4.30;;
19038;SDS011;9652;49.014;12.052;2023-03-29T04:13:04;4.20;;;3.80;;
19038;SDS011;9652;49.014;12.052;2023-03-29T04:15:41;5.43;;;4.57;;
19038;SDS011;9652;49.014;12.052;2023-03-29T04:18:11;4.80;;;4.43;;
19038;SDS011;9652;49.014;12.052;2023-03-29T04:20:46;4.87;;;4.33;;
19038;SDS011;9652;49.014;12.052;2023-03-29T04:23:17;4.63;;;3.93;;
19038;SDS011;9652;49.014;12.052;2023-03-29T04:25:44;6.63;;;4.93;;
19038;SDS011;9652;49.014;12.052;2023-03-29T04:28:44;4.57;;;4.17;;
19038;SDS011;9652;49.014;12.052;2023-03-29T04:31:19;4.37;;;4.03;;
19038;SDS011;9652;49.014;12.052;2023-03-29T04:34:06;3.60;;;3.37;;
19038;SDS011;9652;49.014;12.052;2023-03-29T04:36:34;4.00;;;3.70;;
19038;SDS011;9652;49.014;12.052;2023-03-29T04:39:05;5.07;;;4.67;;
19038;SDS011;9652;49.014;12.052;2023-03-29T04:41:33;4.67;;;4.10;;
19038;SDS011;9652;49.014;12.052;2023-03-29T04:44:22;5.13;;;4.63;;
19038;SDS011;9652;49.014;12.052;2023-03-29T04:46:49;4.97;;;4.60;;
19038;SDS011;9652;49.014;12.052;2023-03-29T04:49:25;4.93;;;4.53;;
19038;SDS011;9652;49.014;12.052;2023-03-29T04:51:55;5.47;;;4.40;;
19038;SDS011;9652;49.014;12.052;2023-03-29T04:54:26;4.47;;;4.07;;
19038;SDS011;9652;49.014;12.052;2023-03-29T04:57:25;5.10;;;4.60;;
19038;SDS011;9652;49.014;12.052;2023-03-29T05:00:16;5.47;;;5.07;;
19038;SDS011;9652;49.014;12.052;2023-03-29T05:03:12;5.33;;;4.93;;
19038;SDS011;9652;49.014;12.052;2023-03-29T05:05:52;4.90;;;4.50;;
19038;SDS011;9652;49.014;12.052;2023-03-29T05:08:21;5.40;;;4.83;;
19038;SDS011;9652;49.014;12.052;2023-03-29T05:11:09;5.23;;;4.77;;
19038;SDS011;9652;49.014;12.052;2023-03-29T05:13:37;4.20;;;3.90;;
19038;SDS011;9652;49.014;12.052;2023-03-29T05:16:05;4.63;;;4.27;;
19038;SDS011;9652;49.014;12.052;2023-03-29T05:18:35;4.83;;;4.43;;
19038;SDS011;9652;49.014;12.052;2023-03-29T05:21:03;4.87;;;4.37;;
19038;SDS011;9652;49.014;12.052;2023-03-29T05:23:34;4.77;;;4.37;;
19038;SDS011;9652;49.014;12.052;2023-03-29T05:26:36;4.57;;;4.20;;
19038;SDS011;9652;49.014;12.052;2023-03-29T05:29:06;5.33;;;4.83;;
19038;SDS011;9652;49.014;12.052;2023-03-29T05:31:34;6.00;;;4.20;;
19038;SDS011;9652;49.014;12.052;2023-03-29T05:34:02;5.27;;;4.70;;
19038;SDS011;9652;49.014;12.052;2023-03-29T05:36:34;5.20;;;4.80;;
19038;SDS011;9652;49.014;12.052;2023-03-29T05:39:04;4.80;;;4.40;;
19038;SDS011;9652;49.014;12.052;2023-03-29T05:41:31;5.27;;;4.83;;
19038;SDS011;9652;49.014;12.052;2023-03-29T05:44:21;5.57;;;4.57;;
19038;SDS011;9652;49.014;12.052;2023-03-29T05:46:54;5.30;;;4.67;;
19038;SDS011;9652;49.014;12.052;2023-03-29T05:49:21;5.30;;;4.90;;
19038;SDS011;9652;49.014;12.052;2023-03-29T05:52:09;6.00;;;5.40;;
19038;SDS011;9652;49.014;12.052;2023-03-29T05:54:38;6.10;;;5.17;;
19038;SDS011;9652;49.014;12.052;2023-03-29T05:57:07;5.40;;;4.90;;
19038;SDS011;9652;49.014;12.052;2023-03-29T05:59:34;5.50;;;5.10;;
19038;SDS011;9652;49.014;12.052;2023-03-29T06:02:03;5.27;;;4.87;;
19038;SDS011;9652;49.014;12.052;2023-03-29T06:04:33;5.70;;;4.97;;
19038;SDS011;9652;49.014;12.052;2023-03-29T06:07:29;5.70;;;5.17;;
19038;SDS011;9652;49.014;12.052;2023-03-29T06:10:22;5.67;;;5.17;;
19038;SDS011;9652;49.014;12.052;2023-03-29T06:12:56;5.60;;;5.10;;
19038;SDS011;9652;49.014;12.052;2023-03-29T06:15:24;5.87;;;4.97;;
19038;SDS011;9652;49.014;12.052;2023-03-29T06:17:59;5.13;;;4.73;;
19038;SDS011;9652;49.014;12.052;2023-03-29T06:20:28;7.03;;;5.77;;
19038;SDS011;9652;49.014;12.052;2023-03-29T06:23:01;5.03;;;4.63;;
19038;SDS011;9652;49.014;12.052;2023-03-29T06:25:29;5.57;;;5.10;;
19038;SDS011;9652;49.014;12.052;2023-03-29T06:27:57;5.40;;;4.97;;
19038;SDS011;9652;49.014;12.052;2023-03-29T06:30:24;6.30;;;5.70;;
19038;SDS011;9652;49.014;12.052;2023-03-29T06:32:54;5.30;;;4.83;;
19038;SDS011;9652;49.014;12.052;2023-03-29T06:35:46;5.03;;;4.63;;
19038;SDS011;9652;49.014;12.052;2023-03-29T06:38:18;5.33;;;4.87;;
19038;SDS011;9652;49.014;12.052;2023-03-29T06:41:05;5.27;;;4.87;;
19038;SDS011;9652;49.014;12.052;2023-03-29T06:43:59;5.27;;;4.87;;
19038;SDS011;9652;49.014;12.052;2023-03-29T06:46:34;5.10;;;4.70;;
19038;SDS011;9652;49.014;12.052;2023-03-29T06:49:06;5.93;;;5.13;;
19038;SDS011;9652;49.014;12.052;2023-03-29T06:51:43;6.33;;;4.57;;
19038;SDS011;9652;49.014;12.052;2023-03-29T06:54:11;5.50;;;4.93;;
19038;SDS011;9652;49.014;12.052;2023-03-29T06:56:48;5.50;;;5.00;;
19038;SDS011;9652;49.014;12.052;2023-03-29T06:59:18;5.77;;;4.97;;
19038;SDS011;9652;49.014;12.052;2023-03-29T07:02:08;5.10;;;4.80;;
19038;SDS011;9652;49.014;12.052;2023-03-29T07:04:46;5.73;;;4.73;;
19038;SDS011;9652;49.014;12.052;2023-03-29T07:07:39;5.23;;;4.80;;
19038;SDS011;9652;49.014;12.052;2023-03-29T07:10:53;6.10;;;5.10;;
19038;SDS011;9652;49.014;12.052;2023-03-29T07:13:40;4.67;;;4.30;;
19038;SDS011;9652;49.014;12.052;2023-03-29T07:16:12;5.23;;;4.73;;
19038;SDS011;9652;49.014;12.052;2023-03-29T07:19:06;4.90;;;4.50;;
19038;SDS011;9652;49.014;12.052;2023-03-29T07:21:57;5.40;;;5.00;;
19038;SDS011;9652;49.014;12.052;2023-03-29T07:24:41;4.73;;;4.33;;
19038;SDS011;9652;49.014;12.052;2023-03-29T07:27:08;5.20;;;4.70;;
19038;SDS011;9652;49.014;12.052;2023-03-29T07:29:37;5.40;;;4.90;;
19038;SDS011;9652;49.014;12.052;2023-03-29T07:32:04;4.90;;;4.50;;
19038;SDS011;9652;49.014;12.052;2023-03-29T07:34:40;5.20;;;4.70;;
19038;SDS011;9652;49.014;12.052;2023-03-29T07:37:12;5.60;;;4.90;;
19038;SDS011;9652;49.014;12.052;2023-03-29T07:39:41;4.47;;;4.10;;
19038;SDS011;9652;49.014;12.052;2023-03-29T07:42:31;6.40;;;5.10;;
19038;SDS011;9652;49.014;12.052;2023-03-29T07:45:02;4.87;;;4.47;;
19038;SDS011;9652;49.014;12.052;2023-03-29T07:47:38;4.50;;;4.10;;
19038;SDS011;9652;49.014;12.052;2023-03-29T07:50:06;4.50;;;4.13;;
19038;SDS011;9652;49.014;12.052;2023-03-29T07:52:34;5.07;;;4.63;;
19038;SDS011;9652;49.014;12.052;2023-03-29T07:55:04;4.87;;;4.30;;
19038;SDS011;9652;49.014;12.052;2023-03-29T07:57:51;5.17;;;4.73;;
19038;SDS011;9652;49.014;12.052;2023-03-29T08:00:20;5.17;;;4.57;;
19038;SDS011;9652;49.014;12.052;2023-03-29T08:03:09;5.40;;;4.90;;
19038;SDS011;9652;49.014;12.052;2023-03-29T08:05:41;5.97;;;4.53;;
19038;SDS011;9652;49.014;12.052;2023-03-29T08:08:11;5.50;;;5.00;;
19038;SDS011;9652;49.014;12.052;2023-03-29T08:10:52;4.87;;;4.47;;
19038;SDS011;9652;49.014;12.052;2023-03-29T08:13:28;4.93;;;4.53;;
19038;SDS011;9652;49.014;12.052;2023-03-29T08:16:17;4.63;;;4.30;;
19038;SDS011;9652;49.014;12.052;2023-03-29T08:18:51;9.13;;;5.13;;
19038;SDS011;9652;49.014;12.052;2023-03-29T08:21:20;4.73;;;4.40;;
19038;SDS011;9652;49.014;12.052;2023-03-29T08:23:48;5.53;;;4.57;;
19038;SDS011;9652;49.014;12.052;2023-03-29T08:26:26;5.47;;;4.97;;
19038;SDS011;9652;49.014;12.052;2023-03-29T08:28:56;4.67;;;4.27;;
19038;SDS011;9652;49.014;12.052;2023-03-29T08:31:26;4.97;;;4.47;;
19038;SDS011;9652;49.014;12.052;2023-03-29T08:33:54;4.80;;;4.40;;
19038;SDS011;9652;49.014;12.052;2023-03-29T08:36:37;6.90;;;4.27;;
19038;SDS011;9652;49.014;12.052;2023-03-29T08:39:15;4.87;;;4.23;;
19038;SDS011;9652;49.014;12.052;2023-03-29T08:41:50;4.63;;;4.23;;
19038;SDS011;9652;49.014;12.052;2023-03-29T08:44:41;5.13;;;4.10;;
19038;SDS011;9652;49.014;12.052;2023-03-29T08:47:27;4.53;;;4.13;;
19038;SDS011;9652;49.014;12.052;2023-03-29T08:50:11;4.20;;;3.90;;
19038;SDS011;9652;49.014;12.052;2023-03-29T08:52:45;5.40;;;4.50;;
19038;SDS011;9652;49.014;12.052;2023-03-29T08:55:44;7.20;;;4.30;;
19038;SDS011;9652;49.014;12.052;2023-03-29T08:58:49;3.60;;;3.30;;
19038;SDS011;9652;49.014;12.052;2023-03-29T09:01:20;4.23;;;3.50;;
19038;SDS011;9652;49.014;12.052;2023-03-29T09:03:57;5.17;;;3.83;;
19038;SDS011;9652;49.014;12.052;2023-03-29T09:06:54;3.87;;;3.57;;
19038;SDS011;9652;49.014;12.052;2023-03-29T09:09:27;5.13;;;3.83;;
19038;SDS011;9652;49.014;12.052;2023-03-29T09:12:11;4.20;;;3.87;;
19038;SDS011;9652;49.014;12.052;2023-03-29T09:15:01;9.27;;;4.90;;
19038;SDS011;9652;49.014;12.052;2023-03-29T09:17:48;5.17;;;3.83;;
19038;SDS011;9652;49.014;12.052;2023-03-29T09:20:31;5.00;;;4.60;;
19038;SDS011;9652;49.014;12.052;2023-03-29T09:23:16;3.70;;;3.40;;
19038;SDS011;9652;49.014;12.052;2023-03-29T09:26:25;3.20;;;3.00;;
19038;SDS011;9652;49.014;12.052;2023-03-29T09:32:19;4.33;;;3.50;;
19038;SDS011;9652;49.014;12.052;2023-03-29T09:35:00;3.73;;;3.10;;
19038;SDS011;9652;49.014;12.052;2023-03-29T09:37:44;4.23;;;3.20;;
19038;SDS011;9652;49.014;12.052;2023-03-29T09:40:15;3.43;;;2.97;;
19038;SDS011;9652;49.014;12.052;2023-03-29T09:42:54;4.37;;;3.67;;
19038;SDS011;9652;49.014;12.052;2023-03-29T09:45:26;4.00;;;3.60;;
19038;SDS011;9652;49.014;12.052;2023-03-29T09:47:54;4.00;;;3.60;;
19038;SDS011;9652;49.014;12.052;2023-03-29T09:50:28;3.80;;;3.43;;
19038;SDS011;9652;49.014;12.052;2023-03-29T09:53:07;3.63;;;3.30;;
19038;SDS011;9652;49.014;12.052;2023-03-29T09:55:38;5.30;;;3.43;;
19038;SDS011;9652;49.014;12.052;2023-03-29T09:58:13;3.30;;;3.00;;
19038;SDS011;9652;49.014;12.052;2023-03-29T10:00:47;3.53;;;3.23;;
19038;SDS011;9652;49.014;12.052;2023-03-29T10:03:16;4.53;;;3.30;;
19038;SDS011;9652;49.014;12.052;2023-03-29T10:05:51;4.17;;;3.27;;
19038;SDS011;9652;49.014;12.052;2023-03-29T10:08:25;3.63;;;3.10;;
19038;SDS011;9652;49.014;12.052;2023-03-29T10:10:57;3.67;;;3.37;;
19038;SDS011;9652;49.014;12.052;2023-03-29T10:13:27;3.20;;;2.90;;
19038;SDS011;9652;49.014;12.052;2023-03-29T10:15:57;5.67;;;3.17;;
19038;SDS011;9652;49.014;12.052;2023-03-29T10:18:29;3.70;;;3.00;;
19038;SDS011;9652;49.014;12.052;2023-03-29T10:20:58;3.70;;;3.10;;
19038;SDS011;9652;49.014;12.052;2023-03-29T10:23:32;4.53;;;3.30;;
19038;SDS011;9652;49.014;12.052;2023-03-29T10:26:04;3.67;;;3.37;;
19038;SDS011;9652;49.014;12.052;2023-03-29T10:28:36;3.90;;;3.47;;
19038;SDS011;9652;49.014;12.052;2023-03-29T10:31:04;3.10;;;2.80;;
19038;SDS011;9652;49.014;12.052;2023-03-29T10:33:32;3.30;;;3.00;;
19038;SDS011;9652;49.014;12.052;2023-03-29T10:36:01;3.20;;;2.90;;
19038;SDS011;9652;49.014;12.052;2023-03-29T10:38:34;3.73;;;3.27;;
19038;SDS011;9652;49.014;12.052;2023-03-29T10:41:04;5.90;;;3.30;;
19038;SDS011;9652;49.014;12.052;2023-03-29T10:43:36;4.30;;;3.20;;
19038;SDS011;9652;49.014;12.052;2023-03-29T10:46:08;3.03;;;2.77;;
19038;SDS011;9652;49.014;12.052;2023-03-29T10:48:38;4.07;;;3.20;;
19038;SDS011;9652;49.014;12.052;2023-03-29T10:51:12;3.33;;;3.03;;
19038;SDS011;9652;49.014;12.052;2023-03-29T10:53:41;5.73;;;3.20;;
19038;SDS011;9652;49.014;12.052;2023-03-29T10:56:11;4.23;;;3.20;;
19038;SDS011;9652;49.014;12.052;2023-03-29T10:59:05;3.77;;;2.80;;
19038;SDS011;9652;49.014;12.052;2023-03-29T11:01:49;3.57;;;2.90;;
19038;SDS011;9652;49.014;12.052;2023-03-29T11:05:03;5.73;;;3.00;;
19038;SDS011;9652;49.014;12.052;2023-03-29T11:07:54;5.57;;;2.90;;
19038;SDS011;9652;49.014;12.052;2023-03-29T11:10:42;3.23;;;2.77;;
19038;SDS011;9652;49.014;12.052;2023-03-29T11:13:20;3.53;;;3.23;;
19038;SDS011;9652;49.014;12.052;2023-03-29T11:16:02;3.40;;;3.03;;
19038;SDS011;9652;49.014;12.052;2023-03-29T11:18:47;4.90;;;3.40;;
19038;SDS011;9652;49.014;12.052;2023-03-29T11:21:39;2.83;;;2.63;;
19038;SDS011;9652;49.014;12.052;2023-03-29T11:24:21;3.50;;;2.93;;
19038;SDS011;9652;49.014;12.052;2023-03-29T11:27:14;4.70;;;2.93;;
19038;SDS011;9652;49.014;12.052;2023-03-29T11:30:03;3.37;;;2.90;;
19038;SDS011;9652;49.014;12.052;2023-03-29T11:32:40;4.03;;;2.63;;
19038;SDS011;9652;49.014;12.052;2023-03-29T11:35:21;3.30;;;3.00;;
19038;SDS011;9652;49.014;12.052;2023-03-29T11:38:04;4.50;;;2.83;;
19038;SDS011;9652;49.014;12.052;2023-03-29T11:40:48;3.00;;;2.70;;
19038;SDS011;9652;49.014;12.052;2023-03-29T11:43:26;3.13;;;2.70;;
19038;SDS011;9652;49.014;12.052;2023-03-29T11:46:00;3.40;;;3.07;;
19038;SDS011;9652;49.014;12.052;2023-03-29T11:48:38;3.23;;;2.93;;
19038;SDS011;9652;49.014;12.052;2023-03-29T11:51:13;3.20;;;2.90;;
19038;SDS011;9652;49.014;12.052;2023-03-29T11:53:53;3.10;;;2.80;;
19038;SDS011;9652;49.014;12.052;2023-03-29T11:56:30;3.60;;;3.10;;
19038;SDS011;9652;49.014;12.052;2023-03-29T11:59:09;2.97;;;2.77;;
19038;SDS011;9652;49.014;12.052;2023-03-29T12:01:44;3.10;;;2.80;;
19038;SDS011;9652;49.014;12.052;2023-03-29T12:04:18;4.97;;;2.70;;
19038;SDS011;9652;49.014;12.052;2023-03-29T12:06:53;3.07;;;2.70;;
19038;SDS011;9652;49.014;12.052;2023-03-29T12:09:35;3.30;;;2.53;;
19038;SDS011;9652;49.014;12.052;2023-03-29T12:12:09;3.83;;;2.60;;
19038;SDS011;9652;49.014;12.052;2023-03-29T12:14:51;4.13;;;2.90;;
19038;SDS011;9652;49.014;12.052;2023-03-29T12:17:27;3.30;;;2.97;;
19038;SDS011;9652;49.014;12.052;2023-03-29T12:20:04;3.80;;;3.10;;
19038;SDS011;9652;49.014;12.052;2023-03-29T12:22:43;3.33;;;3.00;;
19038;SDS011;9652;49.014;12.052;2023-03-29T12:25:14;3.77;;;3.30;;
19038;SDS011;9652;49.014;12.052;2023-03-29T12:27:48;3.60;;;3.30;;
19038;SDS011;9652;49.014;12.052;2023-03-29T12:30:33;3.10;;;2.80;;
19038;SDS011;9652;49.014;12.052;2023-03-29T12:33:25;3.30;;;3.03;;
19038;SDS011;9652;49.014;12.052;2023-03-29T12:40:10;3.57;;;3.27;;
19038;SDS011;9652;49.014;12.052;2023-03-29T12:43:01;3.17;;;2.90;;
19038;SDS011;9652;49.014;12.052;2023-03-29T12:45:50;3.37;;;3.07;;
19038;SDS011;9652;49.014;12.052;2023-03-29T12:48:22;3.63;;;3.27;;
19038;SDS011;9652;49.014;12.052;2023-03-29T12:50:52;6.50;;;3.10;;
19038;SDS011;9652;49.014;12.052;2023-03-29T12:53:25;3.73;;;3.13;;
19038;SDS011;9652;49.014;12.052;2023-03-29T12:56:10;3.83;;;3.23;;
19038;SDS011;9652;49.014;12.052;2023-03-29T13:01:58;4.37;;;3.87;;
19038;SDS011;9652;49.014;12.052;2023-03-29T13:04:35;3.77;;;3.47;;
19038;SDS011;9652;49.014;12.052;2023-03-29T13:07:14;5.37;;;3.60;;
19038;SDS011;9652;49.014;12.052;2023-03-29T13:09:56;5.87;;;3.57;;
19038;SDS011;9652;49.014;12.052;2023-03-29T13:12:26;3.70;;;3.40;;
19038;SDS011;9652;49.014;12.052;2023-03-29T13:15:02;3.93;;;3.57;;
19038;SDS011;9652;49.014;12.052;2023-03-29T13:17:37;4.63;;;3.37;;
19038;SDS011;9652;49.014;12.052;2023-03-29T13:20:19;3.10;;;2.80;;
19038;SDS011;9652;49.014;12.052;2023-03-29T13:23:10;3.60;;;3.17;;
19038;SDS011;9652;49.014;12.052;2023-03-29T13:25:58;4.30;;;3.30;;
19038;SDS011;9652;49.014;12.052;2023-03-29T13:28:44;4.63;;;3.20;;
19038;SDS011;9652;49.014;12.052;2023-03-29T13:31:42;4.20;;;3.53;;
19038;SDS011;9652;49.014;12.052;2023-03-29T13:34:26;3.67;;;3.37;;
19038;SDS011;9652;49.014;12.052;2023-03-29T13:37:07;2.77;;;2.57;;
19038;SDS011;9652;49.014;12.052;2023-03-29T13:39:51;3.43;;;3.20;;
19038;SDS011;9652;49.014;12.052;2023-03-29T13:42:22;3.60;;;3.30;;
19038;SDS011;9652;49.014;12.052;2023-03-29T13:45:04;3.40;;;3.10;;
19038;SDS011;9652;49.014;12.052;2023-03-29T13:47:40;4.00;;;3.47;;
19038;SDS011;9652;49.014;12.052;2023-03-29T13:50:13;5.87;;;3.60;;
19038;SDS011;9652;49.014;12.052;2023-03-29T13:52:55;3.20;;;2.90;;
19038;SDS011;9652;49.014;12.052;2023-03-29T13:55:28;5.97;;;3.60;;
19038;SDS011;9652;49.014;12.052;2023-03-29T13:58:01;3.83;;;3.43;;
19038;SDS011;9652;49.014;12.052;2023-03-29T14:00:37;5.50;;;3.40;;
19038;SDS011;9652;49.014;12.052;2023-03-29T14:03:13;3.87;;;3.20;;
19038;SDS011;9652;49.014;12.052;2023-03-29T14:05:46;3.67;;;3.07;;
19038;SDS011;9652;49.014;12.052;2023-03-29T14:08:20;3.60;;;3.30;;
19038;SDS011;9652;49.014;12.052;2023-03-29T14:10:52;4.70;;;3.40;;
19038;SDS011;9652;49.014;12.052;2023-03-29T14:13:21;4.53;;;3.57;;
19038;SDS011;9652;49.014;12.052;2023-03-29T14:15:52;4.00;;;3.60;;
19038;SDS011;9652;49.014;12.052;2023-03-29T14:18:24;4.43;;;3.23;;
19038;SDS011;9652;49.014;12.052;2023-03-29T14:20:59;4.27;;;3.03;;
19038;SDS011;9652;49.014;12.052;2023-03-29T14:23:27;3.10;;;2.60;;
19038;SDS011;9652;49.014;12.052;2023-03-29T14:26:03;3.10;;;2.80;;
19038;SDS011;9652;49.014;12.052;2023-03-29T14:28:34;4.97;;;2.70;;
19038;SDS011;9652;49.014;12.052;2023-03-29T14:31:02;3.53;;;3.00;;
19038;SDS011;9652;49.014;12.052;2023-03-29T14:33:32;3.13;;;2.83;;
19038;SDS011;9652;49.014;12.052;2023-03-29T14:36:02;3.53;;;3.23;;
19038;SDS011;9652;49.014;12.052;2023-03-29T14:38:31;4.10;;;3.57;;
19038;SDS011;9652;49.014;12.052;2023-03-29T14:41:01;6.13;;;3.30;;
19038;SDS011;9652;49.014;12.052;2023-03-29T14:43:29;3.37;;;3.07;;
19038;SDS011;9652;49.014;12.052;2023-03-29T14:46:01;3.60;;;3.30;;
19038;SDS011;9652;49.014;12.052;2023-03-29T14:48:30;3.73;;;3.03;;
19038;SDS011;9652;49.014;12.052;2023-03-29T14:50:59;5.33;;;3.27;;
19038;SDS011;9652;49.014;12.052;2023-03-29T14:53:28;3.83;;;3.33;;
19038;SDS011;9652;49.014;12.052;2023-03-29T14:55:58;3.10;;;2.80;;
19038;SDS011;9652;49.014;12.052;2023-03-29T14:58:26;3.83;;;3.43;;
19038;SDS011;9652;49.014;12.052;2023-03-29T15:01:02;3.40;;;3.10;;
19038;SDS011;9652;49.014;12.052;2023-03-29T15:03:40;3.80;;;3.13;;
19038;SDS011;9652;49.014;12.052;2023-03-29T15:06:10;4.57;;;3.00;;
19038;SDS011;9652;49.014;12.052;2023-03-29T15:08:40;4.00;;;3.60;;
19038;SDS011;9652;49.014;12.052;2023-03-29T15:11:10;4.83;;;2.70;;
19038;SDS011;9652;49.014;12.052;2023-03-29T15:13:41;4.60;;;3.40;;
19038;SDS011;9652;49.014;12.052;2023-03-29T15:16:11;3.17;;;2.93;;
19038;SDS011;9652;49.014;12.052;2023-03-29T15:18:41;3.93;;;3.63;;
19038;SDS011;9652;49.014;12.052;2023-03-29T15:21:12;3.50;;;3.17;;
19038;SDS011;9652;49.014;12.052;2023-03-29T15:23:47;4.00;;;3.03;;
19038;SDS011;9652;49.014;12.052;2023-03-29T15:26:21;4.27;;;3.70;;
19038;SDS011;9652;49.014;12.052;2023-03-29T15:28:51;3.50;;;3.20;;
19038;SDS011;9652;49.014;12.052;2023-03-29T15:31:31;4.33;;;3.30;;
19038;SDS011;9652;49.014;12.052;2023-03-29T15:34:01;3.43;;;3.13;;
19038;SDS011;9652;49.014;12.052;2023-03-29T15:36:30;3.77;;;3.47;;
19038;SDS011;9652;49.014;12.052;2023-03-29T15:39:00;5.47;;;3.60;;
19038;SDS011;9652;49.014;12.052;2023-03-29T15:41:27;3.57;;;2.90;;
19038;SDS011;9652;49.014;12.052;2023-03-29T15:43:54;3.70;;;3.40;;
19038;SDS011;9652;49.014;12.052;2023-03-29T15:46:21;3.07;;;2.57;;
19038;SDS011;9652;49.014;12.052;2023-03-29T15:48:48;3.53;;;2.70;;
19038;SDS011;9652;49.014;12.052;2023-03-29T15:51:16;3.23;;;2.67;;
19038;SDS011;9652;49.014;12.052;2023-03-29T15:53:43;4.80;;;3.60;;